sensor_id;sensor_type;location;lat;lon;timestamp;P1;durP1;ratioP1;P2;durP2;ratioP2
17482;SDS011;8858;52.308;20.994;2022-10-16T00:01:51;16.57;;;10.73;;
17482;SDS011;8858;52.308;20.994;2022-10-16T00:04:19;12.60;;;11.13;;
17482;SDS011;8858;52.308;20.994;2022-10-16T00:06:47;13.97;;;10.17;;
17482;SDS011;8858;52.308;20.994;2022-10-16T00:09:17;11.20;;;10.10;;
17482;SDS011;8858;52.308;20.994;2022-10-16T00:11:45;11.90;;;9.63;;
17482;SDS011;8858;52.308;20.994;2022-10-16T00:14:14;11.00;;;9.73;;
17482;SDS011;8858;52.308;20.994;2022-10-16T00:16:47;13.40;;;10.00;;
17482;SDS011;8858;52.308;20.994;2022-10-16T00:19:17;11.73;;;10.47;;
17482;SDS011;8858;52.308;20.994;2022-10-16T00:21:46;12.60;;;9.90;;
17482;SDS011;8858;52.308;20.994;2022-10-16T00:24:14;12.90;;;10.77;;
17482;SDS011;8858;52.308;20.994;2022-10-16T00:26:42;12.57;;;11.27;;
17482;SDS011;8858;52.308;20.994;2022-10-16T00:29:11;13.17;;;11.20;;
17482;SDS011;8858;52.308;20.994;2022-10-16T00:31:43;11.73;;;10.13;;
17482;SDS011;8858;52.308;20.994;2022-10-16T00:34:12;14.03;;;9.60;;
17482;SDS011;8858;52.308;20.994;2022-10-16T00:36:41;11.23;;;9.83;;
17482;SDS011;8858;52.308;20.994;2022-10-16T00:39:09;10.93;;;9.63;;
17482;SDS011;8858;52.308;20.994;2022-10-16T00:41:38;11.07;;;9.40;;
17482;SDS011;8858;52.308;20.994;2022-10-16T00:47:11;12.77;;;9.67;;
17482;SDS011;8858;52.308;20.994;2022-10-16T00:49:50;12.67;;;8.50;;
17482;SDS011;8858;52.308;20.994;2022-10-16T00:52:24;11.77;;;9.50;;
17482;SDS011;8858;52.308;20.994;2022-10-16T00:54:55;10.90;;;9.77;;
17482;SDS011;8858;52.308;20.994;2022-10-16T00:57:25;11.50;;;9.63;;
17482;SDS011;8858;52.308;20.994;2022-10-16T00:59:55;10.93;;;9.83;;
17482;SDS011;8858;52.308;20.994;2022-10-16T01:02:25;11.97;;;10.77;;
17482;SDS011;8858;52.308;20.994;2022-10-16T01:04:54;12.67;;;10.70;;
17482;SDS011;8858;52.308;20.994;2022-10-16T01:07:33;14.17;;;10.90;;
17482;SDS011;8858;52.308;20.994;2022-10-16T01:10:11;12.00;;;10.80;;
17482;SDS011;8858;52.308;20.994;2022-10-16T01:12:53;15.47;;;11.73;;
17482;SDS011;8858;52.308;20.994;2022-10-16T01:15:34;13.27;;;11.57;;
17482;SDS011;8858;52.308;20.994;2022-10-16T01:18:06;13.03;;;11.73;;
17482;SDS011;8858;52.308;20.994;2022-10-16T01:20:42;13.33;;;11.43;;
17482;SDS011;8858;52.308;20.994;2022-10-16T01:23:19;12.83;;;11.53;;
17482;SDS011;8858;52.308;20.994;2022-10-16T01:25:59;13.07;;;10.50;;
17482;SDS011;8858;52.308;20.994;2022-10-16T01:28:44;13.30;;;11.30;;
17482;SDS011;8858;52.308;20.994;2022-10-16T01:31:19;13.07;;;11.67;;
17482;SDS011;8858;52.308;20.994;2022-10-16T01:33:51;13.57;;;11.60;;
17482;SDS011;8858;52.308;20.994;2022-10-16T01:36:28;17.13;;;11.80;;
17482;SDS011;8858;52.308;20.994;2022-10-16T01:39:03;14.33;;;11.50;;
17482;SDS011;8858;52.308;20.994;2022-10-16T01:41:39;18.17;;;11.83;;
17482;SDS011;8858;52.308;20.994;2022-10-16T01:44:14;13.63;;;12.00;;
17482;SDS011;8858;52.308;20.994;2022-10-16T01:46:47;16.80;;;12.27;;
17482;SDS011;8858;52.308;20.994;2022-10-16T01:49:18;14.67;;;11.60;;
17482;SDS011;8858;52.308;20.994;2022-10-16T01:51:49;13.40;;;12.03;;
17482;SDS011;8858;52.308;20.994;2022-10-16T01:54:24;16.10;;;12.27;;
17482;SDS011;8858;52.308;20.994;2022-10-16T01:56:56;14.23;;;12.00;;
17482;SDS011;8858;52.308;20.994;2022-10-16T01:59:31;16.30;;;12.30;;
17482;SDS011;8858;52.308;20.994;2022-10-16T02:02:05;13.40;;;11.97;;
17482;SDS011;8858;52.308;20.994;2022-10-16T02:04:38;18.03;;;12.27;;
17482;SDS011;8858;52.308;20.994;2022-10-16T02:07:12;15.83;;;12.10;;
17482;SDS011;8858;52.308;20.994;2022-10-16T02:09:41;18.30;;;11.80;;
17482;SDS011;8858;52.308;20.994;2022-10-16T02:12:11;14.97;;;12.60;;
17482;SDS011;8858;52.308;20.994;2022-10-16T02:14:47;15.33;;;12.10;;
17482;SDS011;8858;52.308;20.994;2022-10-16T02:17:16;13.33;;;11.93;;
17482;SDS011;8858;52.308;20.994;2022-10-16T02:19:47;14.33;;;11.97;;
17482;SDS011;8858;52.308;20.994;2022-10-16T02:22:18;15.70;;;13.07;;
17482;SDS011;8858;52.308;20.994;2022-10-16T02:24:51;14.43;;;12.37;;
17482;SDS011;8858;52.308;20.994;2022-10-16T02:27:25;16.60;;;13.07;;
17482;SDS011;8858;52.308;20.994;2022-10-16T02:30:03;15.90;;;13.20;;
17482;SDS011;8858;52.308;20.994;2022-10-16T02:32:35;15.10;;;13.03;;
17482;SDS011;8858;52.308;20.994;2022-10-16T02:35:07;14.83;;;13.23;;
17482;SDS011;8858;52.308;20.994;2022-10-16T02:37:37;16.13;;;13.90;;
17482;SDS011;8858;52.308;20.994;2022-10-16T02:40:11;15.60;;;13.33;;
17482;SDS011;8858;52.308;20.994;2022-10-16T02:42:40;17.63;;;13.47;;
17482;SDS011;8858;52.308;20.994;2022-10-16T02:45:10;18.13;;;14.97;;
17482;SDS011;8858;52.308;20.994;2022-10-16T02:47:40;14.90;;;13.33;;
17482;SDS011;8858;52.308;20.994;2022-10-16T02:50:09;14.90;;;13.40;;
17482;SDS011;8858;52.308;20.994;2022-10-16T02:52:38;16.60;;;13.77;;
17482;SDS011;8858;52.308;20.994;2022-10-16T02:55:06;15.00;;;13.47;;
17482;SDS011;8858;52.308;20.994;2022-10-16T02:57:36;15.50;;;13.40;;
17482;SDS011;8858;52.308;20.994;2022-10-16T03:00:07;15.10;;;13.50;;
17482;SDS011;8858;52.308;20.994;2022-10-16T03:02:38;15.20;;;13.40;;
17482;SDS011;8858;52.308;20.994;2022-10-16T03:05:11;15.90;;;14.23;;
17482;SDS011;8858;52.308;20.994;2022-10-16T03:07:39;16.60;;;13.67;;
17482;SDS011;8858;52.308;20.994;2022-10-16T03:10:08;15.40;;;13.80;;
17482;SDS011;8858;52.308;20.994;2022-10-16T03:12:37;15.60;;;14.00;;
17482;SDS011;8858;52.308;20.994;2022-10-16T03:15:05;17.93;;;14.00;;
17482;SDS011;8858;52.308;20.994;2022-10-16T03:17:39;20.50;;;14.47;;
17482;SDS011;8858;52.308;20.994;2022-10-16T03:20:10;20.70;;;16.10;;
17482;SDS011;8858;52.308;20.994;2022-10-16T03:22:39;17.93;;;16.03;;
17482;SDS011;8858;52.308;20.994;2022-10-16T03:25:07;23.40;;;16.03;;
17482;SDS011;8858;52.308;20.994;2022-10-16T03:27:36;19.63;;;16.40;;
17482;SDS011;8858;52.308;20.994;2022-10-16T03:30:06;20.73;;;16.57;;
17482;SDS011;8858;52.308;20.994;2022-10-16T03:32:35;17.97;;;16.03;;
17482;SDS011;8858;52.308;20.994;2022-10-16T03:35:06;20.57;;;17.03;;
17482;SDS011;8858;52.308;20.994;2022-10-16T03:37:34;18.37;;;16.33;;
17482;SDS011;8858;52.308;20.994;2022-10-16T03:40:03;21.10;;;16.93;;
17482;SDS011;8858;52.308;20.994;2022-10-16T03:42:34;21.63;;;17.87;;
17482;SDS011;8858;52.308;20.994;2022-10-16T03:45:06;19.87;;;17.03;;
17482;SDS011;8858;52.308;20.994;2022-10-16T03:47:34;19.23;;;17.30;;
17482;SDS011;8858;52.308;20.994;2022-10-16T03:50:03;19.00;;;16.93;;
17482;SDS011;8858;52.308;20.994;2022-10-16T03:52:35;21.13;;;17.73;;
17482;SDS011;8858;52.308;20.994;2022-10-16T03:55:08;19.37;;;17.30;;
17482;SDS011;8858;52.308;20.994;2022-10-16T03:57:36;21.10;;;16.80;;
17482;SDS011;8858;52.308;20.994;2022-10-16T04:00:09;23.10;;;17.97;;
17482;SDS011;8858;52.308;20.994;2022-10-16T04:02:42;20.80;;;16.63;;
17482;SDS011;8858;52.308;20.994;2022-10-16T04:05:13;19.80;;;16.97;;
17482;SDS011;8858;52.308;20.994;2022-10-16T04:07:41;18.30;;;16.40;;
17482;SDS011;8858;52.308;20.994;2022-10-16T04:10:10;20.90;;;17.33;;
17482;SDS011;8858;52.308;20.994;2022-10-16T04:12:39;22.80;;;17.63;;
17482;SDS011;8858;52.308;20.994;2022-10-16T04:15:09;21.70;;;17.13;;
17482;SDS011;8858;52.308;20.994;2022-10-16T04:17:38;20.83;;;16.97;;
17482;SDS011;8858;52.308;20.994;2022-10-16T04:20:06;21.10;;;17.40;;
17482;SDS011;8858;52.308;20.994;2022-10-16T04:22:36;19.70;;;16.90;;
17482;SDS011;8858;52.308;20.994;2022-10-16T04:25:08;20.30;;;16.67;;
17482;SDS011;8858;52.308;20.994;2022-10-16T04:27:38;19.77;;;17.67;;
17482;SDS011;8858;52.308;20.994;2022-10-16T04:30:14;24.00;;;17.07;;
17482;SDS011;8858;52.308;20.994;2022-10-16T04:32:47;19.87;;;17.77;;
17482;SDS011;8858;52.308;20.994;2022-10-16T04:35:16;19.73;;;17.03;;
17482;SDS011;8858;52.308;20.994;2022-10-16T04:37:47;19.23;;;16.93;;
17482;SDS011;8858;52.308;20.994;2022-10-16T04:40:17;21.13;;;16.93;;
17482;SDS011;8858;52.308;20.994;2022-10-16T04:42:45;22.73;;;17.80;;
17482;SDS011;8858;52.308;20.994;2022-10-16T04:45:14;21.83;;;17.53;;
17482;SDS011;8858;52.308;20.994;2022-10-16T04:47:42;22.67;;;17.00;;
17482;SDS011;8858;52.308;20.994;2022-10-16T04:50:11;23.43;;;17.77;;
17482;SDS011;8858;52.308;20.994;2022-10-16T04:52:39;20.13;;;16.83;;
17482;SDS011;8858;52.308;20.994;2022-10-16T04:55:15;20.23;;;17.60;;
17482;SDS011;8858;52.308;20.994;2022-10-16T04:57:44;19.27;;;16.30;;
17482;SDS011;8858;52.308;20.994;2022-10-16T05:00:12;21.23;;;17.53;;
17482;SDS011;8858;52.308;20.994;2022-10-16T05:02:41;20.27;;;16.60;;
17482;SDS011;8858;52.308;20.994;2022-10-16T05:05:09;19.23;;;16.63;;
17482;SDS011;8858;52.308;20.994;2022-10-16T05:07:41;19.30;;;15.73;;
17482;SDS011;8858;52.308;20.994;2022-10-16T05:10:10;19.93;;;16.17;;
17482;SDS011;8858;52.308;20.994;2022-10-16T05:12:40;17.50;;;15.70;;
17482;SDS011;8858;52.308;20.994;2022-10-16T05:15:08;18.50;;;14.40;;
17482;SDS011;8858;52.308;20.994;2022-10-16T05:17:38;17.43;;;14.23;;
17482;SDS011;8858;52.308;20.994;2022-10-16T05:20:10;15.47;;;13.77;;
17482;SDS011;8858;52.308;20.994;2022-10-16T05:22:39;19.10;;;14.13;;
17482;SDS011;8858;52.308;20.994;2022-10-16T05:25:07;16.23;;;14.03;;
17482;SDS011;8858;52.308;20.994;2022-10-16T05:27:35;14.97;;;13.47;;
17482;SDS011;8858;52.308;20.994;2022-10-16T05:30:06;16.70;;;14.13;;
17482;SDS011;8858;52.308;20.994;2022-10-16T05:32:38;18.53;;;14.60;;
17482;SDS011;8858;52.308;20.994;2022-10-16T05:35:06;15.27;;;13.67;;
17482;SDS011;8858;52.308;20.994;2022-10-16T05:37:38;16.47;;;14.50;;
17482;SDS011;8858;52.308;20.994;2022-10-16T05:40:07;17.17;;;13.97;;
17482;SDS011;8858;52.308;20.994;2022-10-16T05:42:35;15.93;;;14.20;;
17482;SDS011;8858;52.308;20.994;2022-10-16T05:45:09;15.60;;;14.00;;
17482;SDS011;8858;52.308;20.994;2022-10-16T05:47:39;18.37;;;14.17;;
17482;SDS011;8858;52.308;20.994;2022-10-16T05:50:08;16.47;;;13.90;;
17482;SDS011;8858;52.308;20.994;2022-10-16T05:52:39;15.77;;;13.27;;
17482;SDS011;8858;52.308;20.994;2022-10-16T05:55:07;15.43;;;13.77;;
17482;SDS011;8858;52.308;20.994;2022-10-16T05:57:36;14.93;;;12.93;;
17482;SDS011;8858;52.308;20.994;2022-10-16T06:00:05;14.60;;;13.07;;
17482;SDS011;8858;52.308;20.994;2022-10-16T06:02:41;14.47;;;12.90;;
17482;SDS011;8858;52.308;20.994;2022-10-16T06:05:10;15.27;;;13.67;;
17482;SDS011;8858;52.308;20.994;2022-10-16T06:07:39;15.27;;;12.93;;
17482;SDS011;8858;52.308;20.994;2022-10-16T06:10:08;16.13;;;13.37;;
17482;SDS011;8858;52.308;20.994;2022-10-16T06:12:37;14.87;;;13.33;;
17482;SDS011;8858;52.308;20.994;2022-10-16T06:15:09;15.50;;;13.70;;
17482;SDS011;8858;52.308;20.994;2022-10-16T06:17:38;17.93;;;13.10;;
17482;SDS011;8858;52.308;20.994;2022-10-16T06:20:08;15.37;;;13.17;;
17482;SDS011;8858;52.308;20.994;2022-10-16T06:22:37;15.23;;;13.20;;
17482;SDS011;8858;52.308;20.994;2022-10-16T06:25:05;15.80;;;13.00;;
17482;SDS011;8858;52.308;20.994;2022-10-16T06:27:39;15.40;;;13.57;;
17482;SDS011;8858;52.308;20.994;2022-10-16T06:30:07;17.50;;;13.83;;
17482;SDS011;8858;52.308;20.994;2022-10-16T06:32:36;14.83;;;13.33;;
17482;SDS011;8858;52.308;20.994;2022-10-16T06:35:05;14.87;;;12.93;;
17482;SDS011;8858;52.308;20.994;2022-10-16T06:37:35;16.03;;;12.57;;
17482;SDS011;8858;52.308;20.994;2022-10-16T06:40:06;15.90;;;13.53;;
17482;SDS011;8858;52.308;20.994;2022-10-16T06:42:34;16.43;;;13.17;;
17482;SDS011;8858;52.308;20.994;2022-10-16T06:45:03;16.70;;;12.60;;
17482;SDS011;8858;52.308;20.994;2022-10-16T06:47:31;16.30;;;12.07;;
17482;SDS011;8858;52.308;20.994;2022-10-16T06:50:00;15.87;;;13.13;;
17482;SDS011;8858;52.308;20.994;2022-10-16T06:52:29;15.67;;;12.27;;
17482;SDS011;8858;52.308;20.994;2022-10-16T06:54:59;15.97;;;12.40;;
17482;SDS011;8858;52.308;20.994;2022-10-16T06:57:29;17.77;;;12.63;;
17482;SDS011;8858;52.308;20.994;2022-10-16T06:59:57;16.13;;;13.13;;
17482;SDS011;8858;52.308;20.994;2022-10-16T07:02:26;13.37;;;11.97;;
17482;SDS011;8858;52.308;20.994;2022-10-16T07:04:54;14.27;;;12.60;;
17482;SDS011;8858;52.308;20.994;2022-10-16T07:07:23;16.50;;;11.87;;
17482;SDS011;8858;52.308;20.994;2022-10-16T07:09:54;16.03;;;12.20;;
17482;SDS011;8858;52.308;20.994;2022-10-16T07:12:22;16.13;;;12.57;;
17482;SDS011;8858;52.308;20.994;2022-10-16T07:14:51;13.63;;;12.10;;
17482;SDS011;8858;52.308;20.994;2022-10-16T07:17:20;17.37;;;12.27;;
17482;SDS011;8858;52.308;20.994;2022-10-16T07:19:48;14.17;;;11.83;;
17482;SDS011;8858;52.308;20.994;2022-10-16T07:22:20;13.47;;;11.67;;
17482;SDS011;8858;52.308;20.994;2022-10-16T07:24:50;13.70;;;12.07;;
17482;SDS011;8858;52.308;20.994;2022-10-16T07:27:20;14.10;;;12.30;;
17482;SDS011;8858;52.308;20.994;2022-10-16T07:29:50;14.23;;;11.27;;
17482;SDS011;8858;52.308;20.994;2022-10-16T07:32:18;15.20;;;12.27;;
17482;SDS011;8858;52.308;20.994;2022-10-16T07:34:46;13.90;;;12.40;;
17482;SDS011;8858;52.308;20.994;2022-10-16T07:37:18;16.27;;;11.23;;
17482;SDS011;8858;52.308;20.994;2022-10-16T07:39:46;13.47;;;11.67;;
17482;SDS011;8858;52.308;20.994;2022-10-16T07:42:15;14.00;;;12.10;;
17482;SDS011;8858;52.308;20.994;2022-10-16T07:44:45;14.70;;;12.00;;
17482;SDS011;8858;52.308;20.994;2022-10-16T07:47:13;12.70;;;11.40;;
17482;SDS011;8858;52.308;20.994;2022-10-16T07:49:41;15.53;;;11.50;;
17482;SDS011;8858;52.308;20.994;2022-10-16T07:52:11;12.37;;;11.17;;
17482;SDS011;8858;52.308;20.994;2022-10-16T07:54:40;13.53;;;11.73;;
17482;SDS011;8858;52.308;20.994;2022-10-16T07:57:08;12.60;;;11.23;;
17482;SDS011;8858;52.308;20.994;2022-10-16T07:59:37;13.93;;;12.53;;
17482;SDS011;8858;52.308;20.994;2022-10-16T08:02:06;14.65;;;11.98;;
17482;SDS011;8858;52.308;20.994;2022-10-16T08:04:35;13.87;;;11.70;;
17482;SDS011;8858;52.308;20.994;2022-10-16T08:07:06;13.15;;;11.77;;
17482;SDS011;8858;52.308;20.994;2022-10-16T08:09:35;15.90;;;12.07;;
17482;SDS011;8858;52.308;20.994;2022-10-16T08:12:04;13.05;;;11.55;;
17482;SDS011;8858;52.308;20.994;2022-10-16T08:14:32;17.88;;;12.48;;
17482;SDS011;8858;52.308;20.994;2022-10-16T08:17:01;13.60;;;12.03;;
17482;SDS011;8858;52.308;20.994;2022-10-16T08:19:31;16.70;;;11.87;;
17482;SDS011;8858;52.308;20.994;2022-10-16T08:22:01;13.33;;;11.97;;
17482;SDS011;8858;52.308;20.994;2022-10-16T08:24:29;13.47;;;12.07;;
17482;SDS011;8858;52.308;20.994;2022-10-16T08:26:58;13.43;;;11.90;;
17482;SDS011;8858;52.308;20.994;2022-10-16T08:29:27;13.70;;;11.57;;
17482;SDS011;8858;52.308;20.994;2022-10-16T08:31:55;13.15;;;11.77;;
17482;SDS011;8858;52.308;20.994;2022-10-16T08:34:27;14.27;;;12.00;;
17482;SDS011;8858;52.308;20.994;2022-10-16T08:36:59;13.23;;;11.75;;
17482;SDS011;8858;52.308;20.994;2022-10-16T08:39:28;12.75;;;11.45;;
17482;SDS011;8858;52.308;20.994;2022-10-16T08:42:01;12.35;;;11.07;;
17482;SDS011;8858;52.308;20.994;2022-10-16T08:44:59;12.32;;;10.82;;
17482;SDS011;8858;52.308;20.994;2022-10-16T08:47:48;13.52;;;10.77;;
17482;SDS011;8858;52.308;20.994;2022-10-16T08:50:24;13.60;;;10.82;;
17482;SDS011;8858;52.308;20.994;2022-10-16T08:52:55;14.02;;;11.05;;
17482;SDS011;8858;52.308;20.994;2022-10-16T08:55:29;14.20;;;10.85;;
17482;SDS011;8858;52.308;20.994;2022-10-16T08:58:01;11.40;;;10.25;;
17482;SDS011;8858;52.308;20.994;2022-10-16T09:00:29;11.85;;;10.10;;
17482;SDS011;8858;52.308;20.994;2022-10-16T09:03:00;11.10;;;9.95;;
17482;SDS011;8858;52.308;20.994;2022-10-16T09:05:48;12.23;;;10.35;;
17482;SDS011;8858;52.308;20.994;2022-10-16T09:08:41;11.30;;;10.10;;
17482;SDS011;8858;52.308;20.994;2022-10-16T09:11:20;10.88;;;9.80;;
17482;SDS011;8858;52.308;20.994;2022-10-16T09:13:59;11.60;;;10.38;;
17482;SDS011;8858;52.308;20.994;2022-10-16T09:16:41;12.75;;;10.32;;
17482;SDS011;8858;52.308;20.994;2022-10-16T09:19:15;11.93;;;10.40;;
17482;SDS011;8858;52.308;20.994;2022-10-16T09:21:49;11.43;;;10.15;;
17482;SDS011;8858;52.308;20.994;2022-10-16T09:24:24;11.57;;;9.43;;
17482;SDS011;8858;52.308;20.994;2022-10-16T09:26:54;10.25;;;9.18;;
17482;SDS011;8858;52.308;20.994;2022-10-16T09:29:23;10.05;;;9.00;;
17482;SDS011;8858;52.308;20.994;2022-10-16T09:31:52;11.35;;;9.43;;
17482;SDS011;8858;52.308;20.994;2022-10-16T09:34:24;10.95;;;9.57;;
17482;SDS011;8858;52.308;20.994;2022-10-16T09:37:03;12.15;;;8.77;;
17482;SDS011;8858;52.308;20.994;2022-10-16T09:39:45;10.88;;;9.70;;
17482;SDS011;8858;52.308;20.994;2022-10-16T09:42:17;12.23;;;9.15;;
17482;SDS011;8858;52.308;20.994;2022-10-16T09:44:47;10.70;;;9.57;;
17482;SDS011;8858;52.308;20.994;2022-10-16T09:47:18;10.50;;;9.18;;
17482;SDS011;8858;52.308;20.994;2022-10-16T09:49:52;9.95;;;8.85;;
17482;SDS011;8858;52.308;20.994;2022-10-16T09:52:23;10.20;;;9.30;;
17482;SDS011;8858;52.308;20.994;2022-10-16T09:54:54;12.05;;;9.48;;
17482;SDS011;8858;52.308;20.994;2022-10-16T09:57:24;12.27;;;9.52;;
17482;SDS011;8858;52.308;20.994;2022-10-16T09:59:54;12.30;;;9.57;;
17482;SDS011;8858;52.308;20.994;2022-10-16T10:02:30;10.82;;;9.77;;
17482;SDS011;8858;52.308;20.994;2022-10-16T10:05:02;11.38;;;10.10;;
17482;SDS011;8858;52.308;20.994;2022-10-16T10:07:35;10.45;;;9.32;;
17482;SDS011;8858;52.308;20.994;2022-10-16T10:10:19;13.43;;;9.50;;
17482;SDS011;8858;52.308;20.994;2022-10-16T10:12:50;12.70;;;9.60;;
17482;SDS011;8858;52.308;20.994;2022-10-16T10:15:18;10.77;;;9.77;;
17482;SDS011;8858;52.308;20.994;2022-10-16T10:17:53;13.35;;;10.95;;
17482;SDS011;8858;52.308;20.994;2022-10-16T10:20:26;12.38;;;10.85;;
17482;SDS011;8858;52.308;20.994;2022-10-16T10:22:59;9.43;;;8.52;;
17482;SDS011;8858;52.308;20.994;2022-10-16T10:25:39;11.02;;;8.27;;
17482;SDS011;8858;52.308;20.994;2022-10-16T10:28:27;10.02;;;9.02;;
17482;SDS011;8858;52.308;20.994;2022-10-16T10:31:12;10.75;;;9.50;;
17482;SDS011;8858;52.308;20.994;2022-10-16T10:33:47;11.20;;;9.38;;
17482;SDS011;8858;52.308;20.994;2022-10-16T10:36:29;10.65;;;8.75;;
17482;SDS011;8858;52.308;20.994;2022-10-16T10:39:05;10.85;;;9.48;;
17482;SDS011;8858;52.308;20.994;2022-10-16T10:44:52;13.15;;;11.85;;
17482;SDS011;8858;52.308;20.994;2022-10-16T10:47:38;9.90;;;8.93;;
17482;SDS011;8858;52.308;20.994;2022-10-16T10:50:18;10.60;;;8.98;;
17482;SDS011;8858;52.308;20.994;2022-10-16T10:52:53;9.25;;;8.27;;
17482;SDS011;8858;52.308;20.994;2022-10-16T10:55:36;10.55;;;9.32;;
17482;SDS011;8858;52.308;20.994;2022-10-16T11:01:29;13.30;;;8.85;;
17482;SDS011;8858;52.308;20.994;2022-10-16T11:04:10;9.27;;;8.48;;
17482;SDS011;8858;52.308;20.994;2022-10-16T11:07:11;13.98;;;8.80;;
17482;SDS011;8858;52.308;20.994;2022-10-16T11:09:45;9.73;;;8.82;;
17482;SDS011;8858;52.308;20.994;2022-10-16T11:12:19;9.68;;;8.68;;
17482;SDS011;8858;52.308;20.994;2022-10-16T11:14:53;10.30;;;9.20;;
17482;SDS011;8858;52.308;20.994;2022-10-16T11:17:30;9.52;;;8.43;;
17482;SDS011;8858;52.308;20.994;2022-10-16T11:20:04;13.27;;;9.23;;
17482;SDS011;8858;52.308;20.994;2022-10-16T11:22:43;9.38;;;8.38;;
17482;SDS011;8858;52.308;20.994;2022-10-16T11:25:16;9.82;;;8.85;;
17482;SDS011;8858;52.308;20.994;2022-10-16T11:27:51;8.82;;;8.02;;
17482;SDS011;8858;52.308;20.994;2022-10-16T11:30:28;11.75;;;9.13;;
17482;SDS011;8858;52.308;20.994;2022-10-16T11:33:08;10.80;;;8.35;;
17482;SDS011;8858;52.308;20.994;2022-10-16T11:35:51;9.77;;;8.75;;
17482;SDS011;8858;52.308;20.994;2022-10-16T11:38:30;8.93;;;8.02;;
17482;SDS011;8858;52.308;20.994;2022-10-16T11:41:07;14.77;;;8.82;;
17482;SDS011;8858;52.308;20.994;2022-10-16T11:43:45;11.60;;;8.77;;
17482;SDS011;8858;52.308;20.994;2022-10-16T11:46:20;11.18;;;7.97;;
17482;SDS011;8858;52.308;20.994;2022-10-16T11:48:54;8.85;;;8.00;;
17482;SDS011;8858;52.308;20.994;2022-10-16T11:51:31;9.95;;;8.07;;
17482;SDS011;8858;52.308;20.994;2022-10-16T11:54:04;10.13;;;8.98;;
17482;SDS011;8858;52.308;20.994;2022-10-16T11:56:43;13.02;;;8.27;;
17482;SDS011;8858;52.308;20.994;2022-10-16T11:59:16;8.70;;;7.95;;
17482;SDS011;8858;52.308;20.994;2022-10-16T12:01:53;8.13;;;7.30;;
17482;SDS011;8858;52.308;20.994;2022-10-16T12:04:33;8.70;;;7.65;;
17482;SDS011;8858;52.308;20.994;2022-10-16T12:07:13;8.98;;;7.45;;
17482;SDS011;8858;52.308;20.994;2022-10-16T12:09:45;7.90;;;6.95;;
17482;SDS011;8858;52.308;20.994;2022-10-16T12:12:25;7.95;;;7.22;;
17482;SDS011;8858;52.308;20.994;2022-10-16T12:15:02;8.13;;;7.30;;
17482;SDS011;8858;52.308;20.994;2022-10-16T12:18:07;8.80;;;7.90;;
17482;SDS011;8858;52.308;20.994;2022-10-16T12:20:55;8.75;;;7.88;;
17482;SDS011;8858;52.308;20.994;2022-10-16T12:23:33;8.98;;;7.90;;
17482;SDS011;8858;52.308;20.994;2022-10-16T12:26:05;8.88;;;7.80;;
17482;SDS011;8858;52.308;20.994;2022-10-16T12:28:34;8.85;;;7.25;;
17482;SDS011;8858;52.308;20.994;2022-10-16T12:31:04;8.82;;;8.02;;
17482;SDS011;8858;52.308;20.994;2022-10-16T12:33:35;8.57;;;7.72;;
17482;SDS011;8858;52.308;20.994;2022-10-16T12:36:14;9.38;;;8.07;;
17482;SDS011;8858;52.308;20.994;2022-10-16T12:38:58;8.40;;;7.60;;
17482;SDS011;8858;52.308;20.994;2022-10-16T12:41:28;8.75;;;7.85;;
17482;SDS011;8858;52.308;20.994;2022-10-16T12:43:58;9.27;;;8.32;;
17482;SDS011;8858;52.308;20.994;2022-10-16T12:46:37;8.80;;;7.82;;
17482;SDS011;8858;52.308;20.994;2022-10-16T12:49:17;8.52;;;7.57;;
17482;SDS011;8858;52.308;20.994;2022-10-16T12:51:55;8.27;;;7.47;;
17482;SDS011;8858;52.308;20.994;2022-10-16T12:54:27;9.13;;;7.45;;
17482;SDS011;8858;52.308;20.994;2022-10-16T12:57:03;10.00;;;7.97;;
17482;SDS011;8858;52.308;20.994;2022-10-16T12:59:48;8.70;;;7.22;;
17482;SDS011;8858;52.308;20.994;2022-10-16T13:05:43;8.68;;;7.28;;
17482;SDS011;8858;52.308;20.994;2022-10-16T13:08:28;10.48;;;7.63;;
17482;SDS011;8858;52.308;20.994;2022-10-16T13:11:08;9.13;;;7.50;;
17482;SDS011;8858;52.308;20.994;2022-10-16T13:13:53;10.13;;;7.43;;
17482;SDS011;8858;52.308;20.994;2022-10-16T13:16:40;10.02;;;8.30;;
17482;SDS011;8858;52.308;20.994;2022-10-16T13:19:22;8.95;;;8.05;;
17482;SDS011;8858;52.308;20.994;2022-10-16T13:22:00;9.70;;;8.50;;
17482;SDS011;8858;52.308;20.994;2022-10-16T13:24:43;10.43;;;8.48;;
17482;SDS011;8858;52.308;20.994;2022-10-16T13:27:26;9.50;;;7.93;;
17482;SDS011;8858;52.308;20.994;2022-10-16T13:30:08;9.00;;;8.10;;
17482;SDS011;8858;52.308;20.994;2022-10-16T13:32:44;9.70;;;7.78;;
17482;SDS011;8858;52.308;20.994;2022-10-16T13:35:18;9.30;;;8.40;;
17482;SDS011;8858;52.308;20.994;2022-10-16T13:37:50;10.48;;;7.90;;
17482;SDS011;8858;52.308;20.994;2022-10-16T13:40:21;8.55;;;7.53;;
17482;SDS011;8858;52.308;20.994;2022-10-16T13:42:51;10.48;;;8.32;;
17482;SDS011;8858;52.308;20.994;2022-10-16T13:45:24;8.98;;;7.82;;
17482;SDS011;8858;52.308;20.994;2022-10-16T13:48:01;9.50;;;8.20;;
17482;SDS011;8858;52.308;20.994;2022-10-16T13:50:34;10.55;;;7.60;;
17482;SDS011;8858;52.308;20.994;2022-10-16T13:53:05;9.77;;;8.10;;
17482;SDS011;8858;52.308;20.994;2022-10-16T13:55:36;8.32;;;7.53;;
17482;SDS011;8858;52.308;20.994;2022-10-16T13:58:06;9.68;;;8.30;;
17482;SDS011;8858;52.308;20.994;2022-10-16T14:00:36;8.93;;;8.02;;
17482;SDS011;8858;52.308;20.994;2022-10-16T14:03:12;10.30;;;8.52;;
17482;SDS011;8858;52.308;20.994;2022-10-16T14:05:43;9.77;;;7.47;;
17482;SDS011;8858;52.308;20.994;2022-10-16T14:08:15;10.32;;;7.85;;
17482;SDS011;8858;52.308;20.994;2022-10-16T14:10:48;8.55;;;7.63;;
17482;SDS011;8858;52.308;20.994;2022-10-16T14:13:19;8.63;;;7.75;;
17482;SDS011;8858;52.308;20.994;2022-10-16T14:15:53;9.15;;;7.60;;
17482;SDS011;8858;52.308;20.994;2022-10-16T14:18:27;11.20;;;8.15;;
17482;SDS011;8858;52.308;20.994;2022-10-16T14:21:05;8.10;;;7.28;;
17482;SDS011;8858;52.308;20.994;2022-10-16T14:23:36;14.70;;;7.90;;
17482;SDS011;8858;52.308;20.994;2022-10-16T14:26:12;8.27;;;7.45;;
17482;SDS011;8858;52.308;20.994;2022-10-16T14:28:47;8.02;;;7.22;;
17482;SDS011;8858;52.308;20.994;2022-10-16T14:31:24;9.77;;;7.65;;
17482;SDS011;8858;52.308;20.994;2022-10-16T14:33:58;9.32;;;7.65;;
17482;SDS011;8858;52.308;20.994;2022-10-16T14:36:27;8.27;;;7.50;;
17482;SDS011;8858;52.308;20.994;2022-10-16T14:38:59;8.77;;;7.50;;
17482;SDS011;8858;52.308;20.994;2022-10-16T14:41:32;11.70;;;7.93;;
17482;SDS011;8858;52.308;20.994;2022-10-16T14:44:06;11.52;;;7.55;;
17482;SDS011;8858;52.308;20.994;2022-10-16T14:46:38;9.40;;;7.65;;
17482;SDS011;8858;52.308;20.994;2022-10-16T14:49:14;8.32;;;7.38;;
17482;SDS011;8858;52.308;20.994;2022-10-16T14:51:45;9.02;;;7.50;;
17482;SDS011;8858;52.308;20.994;2022-10-16T14:54:15;8.38;;;7.43;;
17482;SDS011;8858;52.308;20.994;2022-10-16T14:56:47;9.75;;;7.10;;
17482;SDS011;8858;52.308;20.994;2022-10-16T14:59:18;8.23;;;7.18;;
17482;SDS011;8858;52.308;20.994;2022-10-16T15:01:49;8.82;;;7.97;;
17482;SDS011;8858;52.308;20.994;2022-10-16T15:04:17;8.93;;;7.80;;
17482;SDS011;8858;52.308;20.994;2022-10-16T15:06:48;11.55;;;7.30;;
17482;SDS011;8858;52.308;20.994;2022-10-16T15:09:19;12.77;;;8.05;;
17482;SDS011;8858;52.308;20.994;2022-10-16T15:11:50;8.35;;;7.60;;
17482;SDS011;8858;52.308;20.994;2022-10-16T15:14:18;9.18;;;8.13;;